sensor_id;sensor_type;location;lat;lon;timestamp;P1;durP1;ratioP1;P2;durP2;ratioP2
7487;SDS011;3785;52.260;4.728;2023-02-23T00:02:15;40.10;;;17.98;;
7487;SDS011;3785;52.260;4.728;2023-02-23T00:05:36;36.47;;;17.88;;
7487;SDS011;3785;52.260;4.728;2023-02-23T00:08:57;32.55;;;16.63;;
7487;SDS011;3785;52.260;4.728;2023-02-23T00:12:20;32.22;;;15.93;;
7487;SDS011;3785;52.260;4.728;2023-02-23T00:15:42;34.58;;;15.95;;
7487;SDS011;3785;52.260;4.728;2023-02-23T00:19:03;37.78;;;16.48;;
7487;SDS011;3785;52.260;4.728;2023-02-23T00:22:26;35.00;;;16.50;;
7487;SDS011;3785;52.260;4.728;2023-02-23T00:25:47;38.20;;;17.20;;
7487;SDS011;3785;52.260;4.728;2023-02-23T00:29:09;35.33;;;16.20;;
7487;SDS011;3785;52.260;4.728;2023-02-23T00:32:32;35.95;;;16.15;;
7487;SDS011;3785;52.260;4.728;2023-02-23T00:35:53;38.17;;;16.05;;
7487;SDS011;3785;52.260;4.728;2023-02-23T00:39:14;38.33;;;17.38;;
7487;SDS011;3785;52.260;4.728;2023-02-23T00:42:41;36.72;;;16.25;;
7487;SDS011;3785;52.260;4.728;2023-02-23T00:46:05;36.65;;;15.60;;
7487;SDS011;3785;52.260;4.728;2023-02-23T00:49:26;39.03;;;16.70;;
7487;SDS011;3785;52.260;4.728;2023-02-23T00:52:47;36.95;;;16.33;;
7487;SDS011;3785;52.260;4.728;2023-02-23T00:56:08;38.03;;;16.02;;
7487;SDS011;3785;52.260;4.728;2023-02-23T00:59:30;32.45;;;15.98;;
7487;SDS011;3785;52.260;4.728;2023-02-23T01:02:51;36.85;;;15.57;;
7487;SDS011;3785;52.260;4.728;2023-02-23T01:06:12;41.13;;;16.95;;
7487;SDS011;3785;52.260;4.728;2023-02-23T01:09:34;36.47;;;17.00;;
7487;SDS011;3785;52.260;4.728;2023-02-23T01:12:54;33.03;;;16.77;;
7487;SDS011;3785;52.260;4.728;2023-02-23T01:16:16;35.50;;;16.70;;
7487;SDS011;3785;52.260;4.728;2023-02-23T01:19:38;37.28;;;15.45;;
7487;SDS011;3785;52.260;4.728;2023-02-23T01:22:58;39.58;;;16.95;;
7487;SDS011;3785;52.260;4.728;2023-02-23T01:26:24;37.58;;;17.15;;
7487;SDS011;3785;52.260;4.728;2023-02-23T01:29:46;41.33;;;16.92;;
7487;SDS011;3785;52.260;4.728;2023-02-23T01:33:06;39.60;;;16.95;;
7487;SDS011;3785;52.260;4.728;2023-02-23T01:36:28;36.38;;;15.48;;
7487;SDS011;3785;52.260;4.728;2023-02-23T01:39:48;36.60;;;16.48;;
7487;SDS011;3785;52.260;4.728;2023-02-23T01:46:40;35.63;;;16.70;;
7487;SDS011;3785;52.260;4.728;2023-02-23T01:50:04;33.08;;;15.55;;
7487;SDS011;3785;52.260;4.728;2023-02-23T01:53:25;41.63;;;16.77;;
7487;SDS011;3785;52.260;4.728;2023-02-23T01:56:53;35.55;;;15.63;;
7487;SDS011;3785;52.260;4.728;2023-02-23T02:00:17;37.00;;;16.60;;
7487;SDS011;3785;52.260;4.728;2023-02-23T02:04:01;39.38;;;17.13;;
7487;SDS011;3785;52.260;4.728;2023-02-23T02:07:26;39.83;;;16.77;;
7487;SDS011;3785;52.260;4.728;2023-02-23T02:10:48;37.03;;;16.15;;
7487;SDS011;3785;52.260;4.728;2023-02-23T02:14:16;37.28;;;15.95;;
7487;SDS011;3785;52.260;4.728;2023-02-23T02:17:41;36.63;;;16.10;;
7487;SDS011;3785;52.260;4.728;2023-02-23T02:21:25;37.80;;;16.33;;
7487;SDS011;3785;52.260;4.728;2023-02-23T02:25:25;39.80;;;16.45;;
7487;SDS011;3785;52.260;4.728;2023-02-23T02:32:45;36.70;;;15.13;;
7487;SDS011;3785;52.260;4.728;2023-02-23T02:40:26;36.97;;;16.02;;
7487;SDS011;3785;52.260;4.728;2023-02-23T02:44:14;33.45;;;15.45;;
7487;SDS011;3785;52.260;4.728;2023-02-23T02:47:43;39.38;;;16.13;;
7487;SDS011;3785;52.260;4.728;2023-02-23T02:51:26;40.90;;;16.10;;
7487;SDS011;3785;52.260;4.728;2023-02-23T02:58:53;33.95;;;14.68;;
7487;SDS011;3785;52.260;4.728;2023-02-23T03:02:15;40.15;;;15.98;;
7487;SDS011;3785;52.260;4.728;2023-02-23T03:05:58;34.50;;;14.90;;
7487;SDS011;3785;52.260;4.728;2023-02-23T03:09:49;38.60;;;15.95;;
7487;SDS011;3785;52.260;4.728;2023-02-23T03:13:51;35.50;;;15.85;;
7487;SDS011;3785;52.260;4.728;2023-02-23T03:17:38;40.00;;;15.15;;
7487;SDS011;3785;52.260;4.728;2023-02-23T03:21:26;31.95;;;14.50;;
7487;SDS011;3785;52.260;4.728;2023-02-23T03:25:26;33.42;;;15.73;;
7487;SDS011;3785;52.260;4.728;2023-02-23T03:30:12;31.80;;;14.55;;
7487;SDS011;3785;52.260;4.728;2023-02-23T03:33:29;33.35;;;15.02;;
7487;SDS011;3785;52.260;4.728;2023-02-23T03:37:17;34.40;;;14.88;;
7487;SDS011;3785;52.260;4.728;2023-02-23T03:41:00;31.65;;;14.10;;
7487;SDS011;3785;52.260;4.728;2023-02-23T03:44:41;34.13;;;14.88;;
7487;SDS011;3785;52.260;4.728;2023-02-23T03:48:21;34.60;;;16.23;;
7487;SDS011;3785;52.260;4.728;2023-02-23T03:52:04;34.03;;;14.90;;
7487;SDS011;3785;52.260;4.728;2023-02-23T03:55:49;33.85;;;14.50;;
7487;SDS011;3785;52.260;4.728;2023-02-23T03:59:32;34.33;;;13.98;;
7487;SDS011;3785;52.260;4.728;2023-02-23T04:03:15;38.53;;;13.98;;
7487;SDS011;3785;52.260;4.728;2023-02-23T04:06:58;33.63;;;14.95;;
7487;SDS011;3785;52.260;4.728;2023-02-23T04:10:43;34.83;;;13.98;;
7487;SDS011;3785;52.260;4.728;2023-02-23T04:14:41;35.70;;;14.70;;
7487;SDS011;3785;52.260;4.728;2023-02-23T04:18:22;35.28;;;13.60;;
7487;SDS011;3785;52.260;4.728;2023-02-23T04:21:44;38.10;;;14.85;;
7487;SDS011;3785;52.260;4.728;2023-02-23T04:25:05;34.72;;;14.48;;
7487;SDS011;3785;52.260;4.728;2023-02-23T04:28:27;30.58;;;14.02;;
7487;SDS011;3785;52.260;4.728;2023-02-23T04:31:48;32.97;;;13.48;;
7487;SDS011;3785;52.260;4.728;2023-02-23T04:35:09;28.42;;;13.35;;
7487;SDS011;3785;52.260;4.728;2023-02-23T04:38:30;30.70;;;12.85;;
7487;SDS011;3785;52.260;4.728;2023-02-23T04:41:51;28.45;;;13.25;;
7487;SDS011;3785;52.260;4.728;2023-02-23T04:45:11;33.90;;;12.70;;
7487;SDS011;3785;52.260;4.728;2023-02-23T04:48:32;27.70;;;12.20;;
7487;SDS011;3785;52.260;4.728;2023-02-23T04:51:53;33.75;;;13.55;;
7487;SDS011;3785;52.260;4.728;2023-02-23T04:55:17;31.40;;;13.43;;
7487;SDS011;3785;52.260;4.728;2023-02-23T04:58:40;32.22;;;13.00;;
7487;SDS011;3785;52.260;4.728;2023-02-23T05:02:01;31.13;;;13.70;;
7487;SDS011;3785;52.260;4.728;2023-02-23T05:05:21;31.15;;;13.30;;
7487;SDS011;3785;52.260;4.728;2023-02-23T05:08:42;27.85;;;12.27;;
7487;SDS011;3785;52.260;4.728;2023-02-23T05:12:03;31.90;;;12.98;;
7487;SDS011;3785;52.260;4.728;2023-02-23T05:15:24;29.88;;;12.98;;
7487;SDS011;3785;52.260;4.728;2023-02-23T05:18:44;28.85;;;12.88;;
7487;SDS011;3785;52.260;4.728;2023-02-23T05:22:05;29.67;;;12.45;;
7487;SDS011;3785;52.260;4.728;2023-02-23T05:25:26;33.50;;;12.65;;
7487;SDS011;3785;52.260;4.728;2023-02-23T05:28:46;36.83;;;13.75;;
7487;SDS011;3785;52.260;4.728;2023-02-23T05:32:07;36.08;;;13.38;;
7487;SDS011;3785;52.260;4.728;2023-02-23T05:35:28;31.20;;;12.80;;
7487;SDS011;3785;52.260;4.728;2023-02-23T05:38:48;29.90;;;13.18;;
7487;SDS011;3785;52.260;4.728;2023-02-23T05:42:09;33.47;;;13.38;;
7487;SDS011;3785;52.260;4.728;2023-02-23T05:45:30;33.42;;;12.90;;
7487;SDS011;3785;52.260;4.728;2023-02-23T05:48:54;27.10;;;12.18;;
7487;SDS011;3785;52.260;4.728;2023-02-23T05:52:16;33.88;;;12.70;;
7487;SDS011;3785;52.260;4.728;2023-02-23T05:55:36;33.45;;;12.73;;
7487;SDS011;3785;52.260;4.728;2023-02-23T05:58:57;31.33;;;11.55;;
7487;SDS011;3785;52.260;4.728;2023-02-23T06:02:18;34.47;;;12.63;;
7487;SDS011;3785;52.260;4.728;2023-02-23T06:05:38;31.20;;;12.80;;
7487;SDS011;3785;52.260;4.728;2023-02-23T06:08:59;28.50;;;12.10;;
7487;SDS011;3785;52.260;4.728;2023-02-23T06:12:20;33.63;;;13.60;;
7487;SDS011;3785;52.260;4.728;2023-02-23T06:15:43;41.47;;;14.80;;
7487;SDS011;3785;52.260;4.728;2023-02-23T06:19:04;28.85;;;12.13;;
7487;SDS011;3785;52.260;4.728;2023-02-23T06:22:24;26.85;;;11.63;;
7487;SDS011;3785;52.260;4.728;2023-02-23T06:25:45;34.78;;;13.85;;
7487;SDS011;3785;52.260;4.728;2023-02-23T06:29:06;33.97;;;12.45;;
7487;SDS011;3785;52.260;4.728;2023-02-23T06:32:27;28.77;;;12.52;;
7487;SDS011;3785;52.260;4.728;2023-02-23T06:35:47;34.90;;;12.57;;
7487;SDS011;3785;52.260;4.728;2023-02-23T06:39:09;40.92;;;12.95;;
7487;SDS011;3785;52.260;4.728;2023-02-23T06:42:30;35.15;;;13.30;;
7487;SDS011;3785;52.260;4.728;2023-02-23T06:45:51;29.83;;;12.50;;
7487;SDS011;3785;52.260;4.728;2023-02-23T06:49:11;38.35;;;13.52;;
7487;SDS011;3785;52.260;4.728;2023-02-23T06:52:32;32.95;;;12.48;;
7487;SDS011;3785;52.260;4.728;2023-02-23T06:55:53;37.70;;;13.43;;
7487;SDS011;3785;52.260;4.728;2023-02-23T06:59:13;33.38;;;13.13;;
7487;SDS011;3785;52.260;4.728;2023-02-23T07:02:34;28.83;;;11.65;;
7487;SDS011;3785;52.260;4.728;2023-02-23T07:05:56;34.67;;;13.10;;
7487;SDS011;3785;52.260;4.728;2023-02-23T07:09:17;29.83;;;12.65;;
7487;SDS011;3785;52.260;4.728;2023-02-23T07:12:37;30.25;;;12.82;;
7487;SDS011;3785;52.260;4.728;2023-02-23T07:15:58;26.48;;;11.43;;
7487;SDS011;3785;52.260;4.728;2023-02-23T07:19:20;30.35;;;10.90;;
7487;SDS011;3785;52.260;4.728;2023-02-23T07:22:40;26.40;;;10.10;;
7487;SDS011;3785;52.260;4.728;2023-02-23T07:26:01;28.38;;;10.18;;
7487;SDS011;3785;52.260;4.728;2023-02-23T07:29:22;27.42;;;9.95;;
7487;SDS011;3785;52.260;4.728;2023-02-23T07:32:43;27.05;;;10.13;;
7487;SDS011;3785;52.260;4.728;2023-02-23T07:36:03;29.00;;;10.93;;
7487;SDS011;3785;52.260;4.728;2023-02-23T07:39:24;24.42;;;10.82;;
7487;SDS011;3785;52.260;4.728;2023-02-23T07:42:45;24.85;;;9.90;;
7487;SDS011;3785;52.260;4.728;2023-02-23T07:46:05;26.85;;;10.48;;
7487;SDS011;3785;52.260;4.728;2023-02-23T07:49:26;29.35;;;10.15;;
7487;SDS011;3785;52.260;4.728;2023-02-23T07:52:46;24.40;;;10.25;;
7487;SDS011;3785;52.260;4.728;2023-02-23T07:56:07;30.35;;;10.35;;
7487;SDS011;3785;52.260;4.728;2023-02-23T07:59:29;23.73;;;9.45;;
7487;SDS011;3785;52.260;4.728;2023-02-23T08:02:51;23.23;;;9.13;;
7487;SDS011;3785;52.260;4.728;2023-02-23T08:06:12;23.80;;;8.77;;
7487;SDS011;3785;52.260;4.728;2023-02-23T08:09:34;25.00;;;9.43;;
7487;SDS011;3785;52.260;4.728;2023-02-23T08:12:56;22.35;;;7.97;;
7487;SDS011;3785;52.260;4.728;2023-02-23T08:16:17;21.25;;;7.80;;
7487;SDS011;3785;52.260;4.728;2023-02-23T08:19:38;20.40;;;7.22;;
7487;SDS011;3785;52.260;4.728;2023-02-23T08:22:59;17.75;;;7.15;;
7487;SDS011;3785;52.260;4.728;2023-02-23T08:26:19;17.40;;;6.53;;
7487;SDS011;3785;52.260;4.728;2023-02-23T08:29:40;15.05;;;6.95;;
7487;SDS011;3785;52.260;4.728;2023-02-23T08:33:01;13.57;;;6.30;;
7487;SDS011;3785;52.260;4.728;2023-02-23T08:36:22;16.75;;;6.72;;
7487;SDS011;3785;52.260;4.728;2023-02-23T08:39:42;14.77;;;6.22;;
7487;SDS011;3785;52.260;4.728;2023-02-23T08:43:03;13.45;;;6.00;;
7487;SDS011;3785;52.260;4.728;2023-02-23T08:46:23;21.00;;;6.80;;
7487;SDS011;3785;52.260;4.728;2023-02-23T08:49:44;19.33;;;7.05;;
7487;SDS011;3785;52.260;4.728;2023-02-23T08:53:04;16.75;;;6.15;;
7487;SDS011;3785;52.260;4.728;2023-02-23T08:56:26;15.65;;;6.10;;
7487;SDS011;3785;52.260;4.728;2023-02-23T08:59:47;14.57;;;6.50;;
7487;SDS011;3785;52.260;4.728;2023-02-23T09:03:07;16.02;;;6.43;;
7487;SDS011;3785;52.260;4.728;2023-02-23T09:06:28;17.92;;;6.18;;
7487;SDS011;3785;52.260;4.728;2023-02-23T09:09:56;16.92;;;6.03;;
7487;SDS011;3785;52.260;4.728;2023-02-23T09:13:17;14.88;;;5.85;;
7487;SDS011;3785;52.260;4.728;2023-02-23T09:16:37;14.55;;;6.03;;
7487;SDS011;3785;52.260;4.728;2023-02-23T09:19:58;12.70;;;5.55;;
7487;SDS011;3785;52.260;4.728;2023-02-23T09:23:18;10.10;;;5.18;;
7487;SDS011;3785;52.260;4.728;2023-02-23T09:26:39;14.27;;;5.53;;
7487;SDS011;3785;52.260;4.728;2023-02-23T09:30:02;16.23;;;5.70;;
7487;SDS011;3785;52.260;4.728;2023-02-23T09:33:23;13.75;;;5.57;;
7487;SDS011;3785;52.260;4.728;2023-02-23T09:36:45;14.95;;;5.60;;
7487;SDS011;3785;52.260;4.728;2023-02-23T09:40:06;15.55;;;5.47;;
7487;SDS011;3785;52.260;4.728;2023-02-23T09:43:30;22.45;;;6.35;;
7487;SDS011;3785;52.260;4.728;2023-02-23T09:50:20;16.08;;;6.00;;
7487;SDS011;3785;52.260;4.728;2023-02-23T09:53:44;14.38;;;6.32;;
7487;SDS011;3785;52.260;4.728;2023-02-23T09:57:11;13.88;;;5.82;;
7487;SDS011;3785;52.260;4.728;2023-02-23T10:00:36;16.13;;;6.40;;
7487;SDS011;3785;52.260;4.728;2023-02-23T10:07:51;17.63;;;5.03;;
7487;SDS011;3785;52.260;4.728;2023-02-23T10:11:36;13.73;;;5.75;;
7487;SDS011;3785;52.260;4.728;2023-02-23T10:15:26;16.30;;;5.97;;
7487;SDS011;3785;52.260;4.728;2023-02-23T10:18:51;13.70;;;5.85;;
7487;SDS011;3785;52.260;4.728;2023-02-23T10:22:23;16.77;;;6.75;;
7487;SDS011;3785;52.260;4.728;2023-02-23T10:25:45;15.85;;;7.07;;
7487;SDS011;3785;52.260;4.728;2023-02-23T10:29:18;17.25;;;7.38;;
7487;SDS011;3785;52.260;4.728;2023-02-23T10:32:51;25.00;;;8.13;;
7487;SDS011;3785;52.260;4.728;2023-02-23T10:36:24;19.23;;;8.00;;
7487;SDS011;3785;52.260;4.728;2023-02-23T10:39:50;28.13;;;9.13;;
7487;SDS011;3785;52.260;4.728;2023-02-23T10:43:12;23.92;;;9.45;;
7487;SDS011;3785;52.260;4.728;2023-02-23T10:46:37;25.98;;;9.13;;
7487;SDS011;3785;52.260;4.728;2023-02-23T10:49:59;21.70;;;8.05;;
7487;SDS011;3785;52.260;4.728;2023-02-23T10:53:27;22.23;;;8.40;;
7487;SDS011;3785;52.260;4.728;2023-02-23T10:56:54;20.27;;;7.32;;
7487;SDS011;3785;52.260;4.728;2023-02-23T11:07:15;22.40;;;8.23;;
7487;SDS011;3785;52.260;4.728;2023-02-23T11:10:38;24.10;;;8.45;;
7487;SDS011;3785;52.260;4.728;2023-02-23T11:13:59;23.27;;;9.65;;
7487;SDS011;3785;52.260;4.728;2023-02-23T11:17:36;22.65;;;9.23;;
7487;SDS011;3785;52.260;4.728;2023-02-23T11:20:56;30.83;;;13.32;;
7487;SDS011;3785;52.260;4.728;2023-02-23T11:24:20;36.20;;;12.98;;
7487;SDS011;3785;52.260;4.728;2023-02-23T11:27:46;31.98;;;12.77;;
7487;SDS011;3785;52.260;4.728;2023-02-23T11:31:18;35.72;;;12.52;;
7487;SDS011;3785;52.260;4.728;2023-02-23T11:34:40;23.85;;;9.02;;
7487;SDS011;3785;52.260;4.728;2023-02-23T11:38:22;30.08;;;10.70;;
7487;SDS011;3785;52.260;4.728;2023-02-23T11:41:45;24.52;;;9.13;;
7487;SDS011;3785;52.260;4.728;2023-02-23T11:45:16;29.70;;;9.40;;
7487;SDS011;3785;52.260;4.728;2023-02-23T11:48:53;27.33;;;9.85;;
7487;SDS011;3785;52.260;4.728;2023-02-23T11:52:19;34.55;;;10.65;;
7487;SDS011;3785;52.260;4.728;2023-02-23T11:55:48;23.05;;;9.05;;
7487;SDS011;3785;52.260;4.728;2023-02-23T11:59:17;28.23;;;11.00;;
7487;SDS011;3785;52.260;4.728;2023-02-23T12:02:44;28.33;;;10.02;;
7487;SDS011;3785;52.260;4.728;2023-02-23T12:06:10;30.30;;;10.52;;
7487;SDS011;3785;52.260;4.728;2023-02-23T12:09:31;32.30;;;10.05;;
7487;SDS011;3785;52.260;4.728;2023-02-23T12:12:57;28.10;;;10.10;;
7487;SDS011;3785;52.260;4.728;2023-02-23T12:16:23;26.35;;;10.05;;
7487;SDS011;3785;52.260;4.728;2023-02-23T12:19:58;29.50;;;10.80;;
7487;SDS011;3785;52.260;4.728;2023-02-23T12:23:31;23.67;;;9.65;;
7487;SDS011;3785;52.260;4.728;2023-02-23T12:34:07;27.92;;;11.27;;
7487;SDS011;3785;52.260;4.728;2023-02-23T12:44:45;31.05;;;11.40;;
7487;SDS011;3785;52.260;4.728;2023-02-23T13:06:17;19.40;;;8.95;;
7487;SDS011;3785;52.260;4.728;2023-02-23T13:09:44;20.08;;;9.38;;
7487;SDS011;3785;52.260;4.728;2023-02-23T13:13:32;18.30;;;8.60;;
7487;SDS011;3785;52.260;4.728;2023-02-23T13:16:55;16.05;;;7.57;;
7487;SDS011;3785;52.260;4.728;2023-02-23T13:27:27;18.00;;;8.52;;
7487;SDS011;3785;52.260;4.728;2023-02-23T13:30:56;17.38;;;7.63;;
7487;SDS011;3785;52.260;4.728;2023-02-23T13:34:23;15.27;;;7.45;;
7487;SDS011;3785;52.260;4.728;2023-02-23T13:41:50;16.13;;;6.72;;
7487;SDS011;3785;52.260;4.728;2023-02-23T13:45:30;18.88;;;7.50;;
7487;SDS011;3785;52.260;4.728;2023-02-23T13:49:21;16.95;;;8.02;;
7487;SDS011;3785;52.260;4.728;2023-02-23T13:52:53;16.75;;;7.25;;
7487;SDS011;3785;52.260;4.728;2023-02-23T13:56:18;15.63;;;7.95;;
7487;SDS011;3785;52.260;4.728;2023-02-23T13:59:42;13.80;;;6.25;;
7487;SDS011;3785;52.260;4.728;2023-02-23T14:03:04;15.23;;;7.18;;
7487;SDS011;3785;52.260;4.728;2023-02-23T14:06:27;13.90;;;6.07;;
7487;SDS011;3785;52.260;4.728;2023-02-23T14:10:06;16.67;;;6.63;;
7487;SDS011;3785;52.260;4.728;2023-02-23T14:13:29;9.95;;;3.42;;
7487;SDS011;3785;52.260;4.728;2023-02-23T14:24:17;4.43;;;1.33;;
7487;SDS011;3785;52.260;4.728;2023-02-23T14:27:44;3.45;;;1.63;;
7487;SDS011;3785;52.260;4.728;2023-02-23T14:38:21;4.35;;;1.23;;
7487;SDS011;3785;52.260;4.728;2023-02-23T14:48:38;2.90;;;1.08;;
7487;SDS011;3785;52.260;4.728;2023-02-23T14:52:05;6.47;;;1.10;;
7487;SDS011;3785;52.260;4.728;2023-02-23T14:55:41;6.60;;;1.25;;
7487;SDS011;3785;52.260;4.728;2023-02-23T14:59:05;5.85;;;1.55;;
7487;SDS011;3785;52.260;4.728;2023-02-23T15:02:27;8.38;;;1.73;;
7487;SDS011;3785;52.260;4.728;2023-02-23T15:05:50;6.53;;;1.35;;
7487;SDS011;3785;52.260;4.728;2023-02-23T15:09:17;5.65;;;1.70;;
7487;SDS011;3785;52.260;4.728;2023-02-23T15:12:41;7.30;;;1.60;;
7487;SDS011;3785;52.260;4.728;2023-02-23T15:16:04;9.18;;;2.38;;
7487;SDS011;3785;52.260;4.728;2023-02-23T15:19:33;6.50;;;1.88;;
7487;SDS011;3785;52.260;4.728;2023-02-23T15:22:55;11.93;;;1.92;;
7487;SDS011;3785;52.260;4.728;2023-02-23T15:26:27;5.55;;;1.85;;
7487;SDS011;3785;52.260;4.728;2023-02-23T15:29:50;9.43;;;2.25;;
7487;SDS011;3785;52.260;4.728;2023-02-23T15:33:12;8.48;;;2.28;;
7487;SDS011;3785;52.260;4.728;2023-02-23T15:36:33;4.57;;;1.55;;
7487;SDS011;3785;52.260;4.728;2023-02-23T15:39:58;9.73;;;2.60;;
7487;SDS011;3785;52.260;4.728;2023-02-23T15:43:21;7.82;;;1.90;;
7487;SDS011;3785;52.260;4.728;2023-02-23T15:46:43;6.07;;;1.83;;
7487;SDS011;3785;52.260;4.728;2023-02-23T15:50:23;5.85;;;1.90;;
7487;SDS011;3785;52.260;4.728;2023-02-23T15:54:00;7.10;;;2.08;;
7487;SDS011;3785;52.260;4.728;2023-02-23T15:57:26;7.30;;;1.80;;
7487;SDS011;3785;52.260;4.728;2023-02-23T16:00:56;5.05;;;1.95;;
7487;SDS011;3785;52.260;4.728;2023-02-23T16:04:18;11.68;;;2.42;;
7487;SDS011;3785;52.260;4.728;2023-02-23T16:07:42;8.27;;;2.33;;
7487;SDS011;3785;52.260;4.728;2023-02-23T16:11:08;8.80;;;2.13;;
7487;SDS011;3785;52.260;4.728;2023-02-23T16:14:33;9.48;;;1.58;;
7487;SDS011;3785;52.260;4.728;2023-02-23T16:18:03;15.00;;;2.17;;
7487;SDS011;3785;52.260;4.728;2023-02-23T16:21:25;7.88;;;1.88;;
7487;SDS011;3785;52.260;4.728;2023-02-23T16:24:52;9.48;;;2.17;;
7487;SDS011;3785;52.260;4.728;2023-02-23T16:28:25;12.85;;;2.70;;
7487;SDS011;3785;52.260;4.728;2023-02-23T16:31:49;12.13;;;2.30;;
7487;SDS011;3785;52.260;4.728;2023-02-23T16:35:16;10.07;;;1.83;;
7487;SDS011;3785;52.260;4.728;2023-02-23T16:38:40;7.50;;;2.17;;
7487;SDS011;3785;52.260;4.728;2023-02-23T16:42:05;14.93;;;2.10;;
7487;SDS011;3785;52.260;4.728;2023-02-23T16:45:25;10.93;;;2.20;;
7487;SDS011;3785;52.260;4.728;2023-02-23T16:48:48;5.85;;;1.73;;
7487;SDS011;3785;52.260;4.728;2023-02-23T16:52:12;7.88;;;1.73;;
7487;SDS011;3785;52.260;4.728;2023-02-23T16:55:39;8.55;;;1.80;;
7487;SDS011;3785;52.260;4.728;2023-02-23T16:59:06;8.48;;;1.42;;
7487;SDS011;3785;52.260;4.728;2023-02-23T17:02:29;9.18;;;2.13;;
7487;SDS011;3785;52.260;4.728;2023-02-23T17:05:50;7.20;;;1.98;;
7487;SDS011;3785;52.260;4.728;2023-02-23T17:09:11;7.80;;;1.90;;
7487;SDS011;3785;52.260;4.728;2023-02-23T17:12:32;9.15;;;1.95;;
7487;SDS011;3785;52.260;4.728;2023-02-23T17:15:53;9.90;;;1.75;;
7487;SDS011;3785;52.260;4.728;2023-02-23T17:19:15;6.50;;;1.70;;
7487;SDS011;3785;52.260;4.728;2023-02-23T17:22:37;9.20;;;1.75;;
7487;SDS011;3785;52.260;4.728;2023-02-23T17:25:58;6.55;;;1.70;;
7487;SDS011;3785;52.260;4.728;2023-02-23T17:29:18;7.78;;;1.58;;
7487;SDS011;3785;52.260;4.728;2023-02-23T17:32:39;7.68;;;1.48;;
7487;SDS011;3785;52.260;4.728;2023-02-23T17:36:00;5.50;;;1.55;;
7487;SDS011;3785;52.260;4.728;2023-02-23T17:39:22;10.93;;;1.73;;
7487;SDS011;3785;52.260;4.728;2023-02-23T17:42:46;6.70;;;1.73;;
7487;SDS011;3785;52.260;4.728;2023-02-23T17:46:07;5.88;;;1.38;;
7487;SDS011;3785;52.260;4.728;2023-02-23T17:49:28;10.55;;;1.75;;
7487;SDS011;3785;52.260;4.728;2023-02-23T17:52:49;6.60;;;1.35;;
7487;SDS011;3785;52.260;4.728;2023-02-23T17:56:10;10.45;;;1.38;;
7487;SDS011;3785;52.260;4.728;2023-02-23T17:59:30;8.60;;;1.50;;
7487;SDS011;3785;52.260;4.728;2023-02-23T18:02:51;4.40;;;1.23;;
7487;SDS011;3785;52.260;4.728;2023-02-23T18:06:12;8.00;;;1.80;;
7487;SDS011;3785;52.260;4.728;2023-02-23T18:09:33;5.75;;;1.90;;
7487;SDS011;3785;52.260;4.728;2023-02-23T18:12:54;6.63;;;1.70;;
7487;SDS011;3785;52.260;4.728;2023-02-23T18:16:14;4.70;;;1.05;;
7487;SDS011;3785;52.260;4.728;2023-02-23T18:19:35;6.28;;;1.30;;
7487;SDS011;3785;52.260;4.728;2023-02-23T18:22:55;8.68;;;1.40;;
7487;SDS011;3785;52.260;4.728;2023-02-23T18:26:18;8.77;;;1.40;;
7487;SDS011;3785;52.260;4.728;2023-02-23T18:29:40;6.72;;;1.63;;
7487;SDS011;3785;52.260;4.728;2023-02-23T18:33:01;6.05;;;1.10;;
7487;SDS011;3785;52.260;4.728;2023-02-23T18:36:26;3.33;;;0.93;;
7487;SDS011;3785;52.260;4.728;2023-02-23T18:39:49;8.45;;;1.65;;
7487;SDS011;3785;52.260;4.728;2023-02-23T18:43:11;6.75;;;1.27;;
7487;SDS011;3785;52.260;4.728;2023-02-23T18:46:32;4.82;;;1.58;;
7487;SDS011;3785;52.260;4.728;2023-02-23T18:49:53;5.82;;;1.33;;
7487;SDS011;3785;52.260;4.728;2023-02-23T18:53:15;4.75;;;1.17;;
7487;SDS011;3785;52.260;4.728;2023-02-23T18:56:36;3.10;;;1.00;;
7487;SDS011;3785;52.260;4.728;2023-02-23T18:59:57;5.72;;;1.15;;
7487;SDS011;3785;52.260;4.728;2023-02-23T19:03:18;4.85;;;1.02;;
7487;SDS011;3785;52.260;4.728;2023-02-23T19:06:40;5.80;;;0.90;;
7487;SDS011;3785;52.260;4.728;2023-02-23T19:10:02;10.38;;;1.65;;
7487;SDS011;3785;52.260;4.728;2023-02-23T19:13:24;4.07;;;0.85;;
7487;SDS011;3785;52.260;4.728;2023-02-23T19:16:45;2.13;;;1.08;;
7487;SDS011;3785;52.260;4.728;2023-02-23T19:20:06;5.00;;;1.10;;
7487;SDS011;3785;52.260;4.728;2023-02-23T19:23:32;6.00;;;1.20;;
7487;SDS011;3785;52.260;4.728;2023-02-23T19:26:53;2.50;;;1.33;;
7487;SDS011;3785;52.260;4.728;2023-02-23T19:30:13;4.85;;;1.27;;
7487;SDS011;3785;52.260;4.728;2023-02-23T19:33:34;5.07;;;1.15;;
7487;SDS011;3785;52.260;4.728;2023-02-23T19:36:57;4.43;;;1.00;;
7487;SDS011;3785;52.260;4.728;2023-02-23T19:40:18;5.70;;;1.20;;
7487;SDS011;3785;52.260;4.728;2023-02-23T19:43:41;2.03;;;1.15;;
7487;SDS011;3785;52.260;4.728;2023-02-23T19:47:02;8.15;;;1.90;;
7487;SDS011;3785;52.260;4.728;2023-02-23T19:50:22;6.28;;;1.38;;
7487;SDS011;3785;52.260;4.728;2023-02-23T19:53:43;8.88;;;1.52;;
7487;SDS011;3785;52.260;4.728;2023-02-23T19:57:03;5.95;;;1.25;;
7487;SDS011;3785;52.260;4.728;2023-02-23T20:00:24;7.35;;;1.15;;
7487;SDS011;3785;52.260;4.728;2023-02-23T20:03:45;5.78;;;1.35;;
7487;SDS011;3785;52.260;4.728;2023-02-23T20:07:08;6.57;;;1.20;;
7487;SDS011;3785;52.260;4.728;2023-02-23T20:10:30;6.50;;;1.25;;
7487;SDS011;3785;52.260;4.728;2023-02-23T20:13:53;4.93;;;1.30;;
7487;SDS011;3785;52.260;4.728;2023-02-23T20:17:15;4.55;;;1.65;;
7487;SDS011;3785;52.260;4.728;2023-02-23T20:20:37;2.58;;;1.52;;
7487;SDS011;3785;52.260;4.728;2023-02-23T20:23:58;2.92;;;0.93;;
7487;SDS011;3785;52.260;4.728;2023-02-23T20:27:20;1.73;;;0.90;;
7487;SDS011;3785;52.260;4.728;2023-02-23T20:30:47;3.35;;;1.38;;
7487;SDS011;3785;52.260;4.728;2023-02-23T20:34:08;2.35;;;1.15;;
7487;SDS011;3785;52.260;4.728;2023-02-23T20:37:29;5.15;;;1.05;;
7487;SDS011;3785;52.260;4.728;2023-02-23T20:40:50;4.47;;;1.10;;
7487;SDS011;3785;52.260;4.728;2023-02-23T20:44:12;4.38;;;1.13;;
7487;SDS011;3785;52.260;4.728;2023-02-23T20:47:33;3.28;;;1.40;;
7487;SDS011;3785;52.260;4.728;2023-02-23T20:50:54;5.15;;;1.58;;
7487;SDS011;3785;52.260;4.728;2023-02-23T20:54:16;13.25;;;2.03;;
7487;SDS011;3785;52.260;4.728;2023-02-23T20:57:37;4.63;;;1.10;;
7487;SDS011;3785;52.260;4.728;2023-02-23T21:00:57;6.05;;;1.60;;
7487;SDS011;3785;52.260;4.728;2023-02-23T21:04:21;5.30;;;1.13;;
7487;SDS011;3785;52.260;4.728;2023-02-23T21:07:42;3.72;;;1.15;;
7487;SDS011;3785;52.260;4.728;2023-02-23T21:11:03;4.22;;;1.25;;
7487;SDS011;3785;52.260;4.728;2023-02-23T21:14:25;6.07;;;1.33;;
7487;SDS011;3785;52.260;4.728;2023-02-23T21:17:45;5.22;;;1.60;;
7487;SDS011;3785;52.260;4.728;2023-02-23T21:21:06;3.95;;;1.63;;
7487;SDS011;3785;52.260;4.728;2023-02-23T21:24:30;3.85;;;1.42;;
7487;SDS011;3785;52.260;4.728;2023-02-23T21:27:52;3.85;;;1.27;;
7487;SDS011;3785;52.260;4.728;2023-02-23T21:31:13;4.82;;;1.70;;
7487;SDS011;3785;52.260;4.728;2023-02-23T21:34:34;6.85;;;1.33;;
7487;SDS011;3785;52.260;4.728;2023-02-23T21:37:55;2.55;;;1.33;;
7487;SDS011;3785;52.260;4.728;2023-02-23T21:41:16;5.50;;;1.13;;
7487;SDS011;3785;52.260;4.728;2023-02-23T21:44:36;5.53;;;1.80;;
7487;SDS011;3785;52.260;4.728;2023-02-23T21:47:57;8.23;;;2.42;;
7487;SDS011;3785;52.260;4.728;2023-02-23T21:51:18;7.72;;;3.70;;
7487;SDS011;3785;52.260;4.728;2023-02-23T21:54:38;9.85;;;3.92;;
7487;SDS011;3785;52.260;4.728;2023-02-23T21:58:00;6.55;;;3.53;;
7487;SDS011;3785;52.260;4.728;2023-02-23T22:01:31;6.28;;;3.63;;
7487;SDS011;3785;52.260;4.728;2023-02-23T22:04:55;6.80;;;2.42;;
7487;SDS011;3785;52.260;4.728;2023-02-23T22:08:17;5.68;;;1.60;;
7487;SDS011;3785;52.260;4.728;2023-02-23T22:11:38;7.45;;;1.98;;
7487;SDS011;3785;52.260;4.728;2023-02-23T22:15:03;5.05;;;1.92;;
7487;SDS011;3785;52.260;4.728;2023-02-23T22:18:29;4.13;;;1.25;;
7487;SDS011;3785;52.260;4.728;2023-02-23T22:21:49;3.30;;;1.55;;
7487;SDS011;3785;52.260;4.728;2023-02-23T22:25:10;3.22;;;1.50;;
7487;SDS011;3785;52.260;4.728;2023-02-23T22:28:31;4.05;;;1.30;;